Time;durP1;ratioP1;P1;durP2;ratioP2;P2;SDS_P1;SDS_P2;PMS_P1;PMS_P2;Temp;Humidity;BMP_temperature;BMP_pressure;BME280_temperature;BME280_humidity;BME280_pressure;Samples;Min_cycle;Max_cycle;Signal;HPM_P1;HPM_P2
2023/06/12 01:23:00;;;;;;;0.50;0.20;;;;;;;11.77;100.00;100402.80;103760;1304;545034;-74
2023/06/12 01:25:53;;;;;;;4.80;0.40;;;;;;;11.81;100.00;100405.58;106092;1284;138031;-72
2023/06/12 01:28:37;;;;;;;0.20;0.20;;;;;;;11.83;100.00;100404.05;105472;1288;138920;-72
2023/06/12 01:31:25;;;;;;;0.80;0.20;;;;;;;11.86;100.00;100407.10;105770;1272;24221;-73
2023/06/12 01:34:20;;;;;;;3.80;0.60;;;;;;;11.92;100.00;100402.56;106102;1286;139156;-72
2023/06/12 01:36:57;;;;;;;4.10;0.40;;;;;;;11.99;100.00;100399.95;105909;1283;180837;-73
2023/06/12 01:39:27;;;;;;;0.80;0.20;;;;;;;12.00;100.00;100399.79;106352;1281;25353;-70
2023/06/12 01:41:54;;;;;;;0.40;0.40;;;;;;;11.96;100.00;100400.70;106294;1282;138641;-72
2023/06/12 01:44:22;;;;;;;1.50;0.50;;;;;;;11.90;100.00;100397.09;106082;1277;138633;-71
2023/06/12 01:46:50;;;;;;;1.00;0.20;;;;;;;11.92;100.00;100400.59;106137;1279;25281;-72
2023/06/12 01:49:17;;;;;;;1.60;0.20;;;;;;;11.93;100.00;100398.34;106075;1282;138836;-72
2023/06/12 01:51:45;;;;;;;0.30;0.20;;;;;;;11.92;100.00;100400.80;106135;1282;25340;-72
2023/06/12 01:54:12;;;;;;;2.50;0.20;;;;;;;11.89;100.00;100400.27;106328;1283;139650;-72
2023/06/12 01:56:42;;;;;;;1.40;0.30;;;;;;;11.88;100.00;100401.05;106185;1279;139814;-72
2023/06/12 01:59:11;;;;;;;2.10;0.40;;;;;;;11.80;100.00;100388.38;106329;1283;24249;-73
2023/06/12 02:01:44;;;;;;;3.20;0.50;;;;;;;11.76;100.00;100389.20;106313;1282;141301;-71
2023/06/12 02:04:12;;;;;;;2.70;0.10;;;;;;;11.81;100.00;100400.41;105996;1284;141949;-71
2023/06/12 02:06:40;;;;;;;2.60;0.40;;;;;;;11.74;100.00;100398.17;109919;1282;22235;-71
2023/06/12 02:09:07;;;;;;;2.30;0.20;;;;;;;11.82;100.00;100396.88;109736;1283;141145;-71
2023/06/12 02:11:34;;;;;;;2.40;0.50;;;;;;;11.90;100.00;100396.10;109802;1281;23059;-71
2023/06/12 02:14:02;;;;;;;0.80;0.30;;;;;;;11.94;100.00;100399.73;109789;1263;142110;-70
2023/06/12 02:16:30;;;;;;;1.40;0.20;;;;;;;11.98;100.00;100397.88;109743;1263;138769;-72
2023/06/12 02:18:57;;;;;;;2.00;0.50;;;;;;;12.06;100.00;100395.30;109852;1266;22233;-70
2023/06/12 02:21:24;;;;;;;0.70;0.30;;;;;;;12.09;100.00;100394.24;109714;1278;140561;-71
2023/06/12 02:23:52;;;;;;;1.90;0.30;;;;;;;12.14;100.00;100393.21;109833;1277;22801;-70
2023/06/12 02:26:20;;;;;;;2.10;0.30;;;;;;;12.17;100.00;100392.77;110073;1278;138566;-71
2023/06/12 02:29:05;;;;;;;1.00;0.30;;;;;;;12.18;100.00;100392.48;109882;1262;138167;-71
2023/06/12 02:31:35;;;;;;;2.80;0.10;;;;;;;12.23;100.00;100394.33;109996;1274;22141;-72
2023/06/12 02:34:03;;;;;;;3.60;0.40;;;;;;;12.23;100.00;100394.34;109894;1275;138935;-71
2023/06/12 02:36:30;;;;;;;0.70;0.30;;;;;;;12.21;100.00;100396.67;109831;1271;139689;-71
2023/06/12 02:38:58;;;;;;;1.10;0.30;;;;;;;12.27;100.00;100397.25;109980;1279;22370;-70
2023/06/12 02:41:25;;;;;;;1.90;0.40;;;;;;;12.28;100.00;100395.83;109951;1275;139163;-71
2023/06/12 02:43:53;;;;;;;6.40;1.10;;;;;;;12.27;100.00;100398.45;109996;1277;22118;-69
2023/06/12 02:46:20;;;;;;;1.50;0.20;;;;;;;12.24;100.00;100395.64;109874;1275;138693;-71
2023/06/12 02:48:48;;;;;;;1.60;0.40;;;;;;;12.21;100.00;100384.62;109938;1278;138799;-71
2023/06/12 02:51:16;;;;;;;3.30;0.30;;;;;;;12.24;100.00;100386.60;109902;1272;22221;-72
2023/06/12 02:53:43;;;;;;;4.10;0.30;;;;;;;12.36;100.00;100396.86;109908;1274;139202;-71
2023/06/12 02:56:10;;;;;;;1.20;0.20;;;;;;;12.37;100.00;100391.35;109856;1278;139382;-71
2023/06/12 02:58:44;;;;;;;1.20;0.40;;;;;;;12.42;100.00;100391.13;109960;1278;22207;-71
2023/06/12 03:01:12;;;;;;;3.00;0.30;;;;;;;12.52;100.00;100386.88;109899;1272;138091;-71
2023/06/12 03:03:39;;;;;;;3.20;0.30;;;;;;;12.63;100.00;100384.70;109978;1274;22799;-72
2023/06/12 03:06:08;;;;;;;1.80;0.40;;;;;;;12.64;100.00;100377.14;109949;1278;137864;-71
2023/06/12 03:08:35;;;;;;;4.00;0.40;;;;;;;12.68;100.00;100383.20;109942;1278;138966;-72
2023/06/12 03:11:02;;;;;;;1.40;0.30;;;;;;;12.59;100.00;100382.85;110075;1278;22201;-72
2023/06/12 03:13:30;;;;;;;2.40;0.40;;;;;;;12.69;100.00;100380.86;109898;1277;139104;-71
2023/06/12 03:15:57;;;;;;;1.60;0.20;;;;;;;12.82;100.00;100378.84;109985;1278;22307;-71
2023/06/12 03:18:25;;;;;;;0.70;0.20;;;;;;;12.88;100.00;100382.02;109972;1276;137904;-71
2023/06/12 03:20:52;;;;;;;1.50;0.50;;;;;;;12.98;100.00;100382.48;109991;1276;138887;-72
2023/06/12 03:23:19;;;;;;;1.10;0.30;;;;;;;13.04;100.00;100383.05;110054;1278;23067;-72
2023/06/12 03:25:47;;;;;;;3.40;0.20;;;;;;;13.03;100.00;100388.23;109995;1261;141143;-72
2023/06/12 03:28:15;;;;;;;0.70;0.20;;;;;;;13.07;100.00;100381.98;109882;1271;138821;-71
2023/06/12 03:30:42;;;;;;;0.30;0.30;;;;;;;13.06;100.00;100384.28;110118;1278;22883;-71
2023/06/12 03:33:11;;;;;;;1.60;0.30;;;;;;;13.02;100.00;100383.53;109892;1278;138874;-72
2023/06/12 03:35:38;;;;;;;3.30;0.80;;;;;;;13.05;100.00;100381.52;110162;1274;22333;-71
2023/06/12 03:38:06;;;;;;;1.00;0.40;;;;;;;13.07;100.00;100380.20;109911;1271;138186;-71
2023/06/12 03:40:33;;;;;;;2.20;0.50;;;;;;;13.14;100.00;100375.35;109907;1278;137959;-72
2023/06/12 03:43:01;;;;;;;3.30;0.50;;;;;;;13.16;100.00;100375.73;109977;1274;24056;-73
2023/06/12 03:45:28;;;;;;;0.50;0.30;;;;;;;13.17;100.00;100378.86;109896;1264;138048;-72
2023/06/12 03:47:57;;;;;;;2.00;0.80;;;;;;;13.16;100.00;100376.71;109980;1271;23024;-72
2023/06/12 03:50:25;;;;;;;3.00;0.20;;;;;;;13.16;100.00;100380.96;110062;1278;139472;-73
2023/06/12 03:52:52;;;;;;;2.10;0.30;;;;;;;13.23;100.00;100382.20;110042;1260;138510;-76
2023/06/12 03:55:20;;;;;;;2.60;0.10;;;;;;;13.28;100.00;100382.75;110030;1272;22501;-73
2023/06/12 03:57:48;;;;;;;1.30;0.20;;;;;;;13.18;100.00;100379.31;109995;1277;137968;-74
2023/06/12 04:00:19;;;;;;;0.90;0.20;;;;;;;13.12;100.00;100389.67;110139;1275;137589;-73
2023/06/12 04:02:47;;;;;;;3.40;0.60;;;;;;;13.04;100.00;100391.06;109884;1273;22446;-70
2023/06/12 04:05:20;;;;;;;0.50;0.20;;;;;;;13.00;100.00;100384.06;109752;1270;138536;-72
2023/06/12 04:07:48;;;;;;;2.40;0.40;;;;;;;13.01;100.00;100389.16;109811;1273;22279;-73
2023/06/12 04:10:16;;;;;;;4.10;1.10;;;;;;;13.03;100.00;100392.52;109848;1271;138100;-73
2023/06/12 04:12:43;;;;;;;3.50;0.40;;;;;;;13.08;100.00;100389.42;109859;1270;138221;-71
2023/06/12 04:15:11;;;;;;;3.60;0.30;;;;;;;13.09;100.00;100391.41;109993;1270;22320;-71
2023/06/12 04:17:38;;;;;;;1.30;0.40;;;;;;;13.09;100.00;100387.63;109870;1271;138215;-71
2023/06/12 04:20:06;;;;;;;1.40;0.40;;;;;;;13.13;100.00;100388.35;109882;1271;138809;-71
2023/06/12 04:22:35;;;;;;;1.90;0.20;;;;;;;13.19;100.00;100392.81;110034;1270;22400;-73
2023/06/12 04:25:05;;;;;;;0.60;0.30;;;;;;;13.25;100.00;100398.30;109858;1271;138356;-72
2023/06/12 04:27:33;;;;;;;1.20;0.40;;;;;;;13.26;100.00;100397.48;109868;1267;22334;-72
2023/06/12 04:30:01;;;;;;;1.80;0.30;;;;;;;13.26;100.00;100402.84;109720;1273;139283;-72
2023/06/12 04:32:29;;;;;;;4.10;0.40;;;;;;;13.24;100.00;100399.33;109806;1260;138895;-71
2023/06/12 04:34:57;;;;;;;5.10;0.50;;;;;;;13.26;100.00;100397.80;109969;1272;22121;-77
2023/06/12 04:37:25;;;;;;;1.60;0.20;;;;;;;13.34;100.00;100398.58;109839;1272;138725;-74
2023/06/12 04:39:53;;;;;;;1.00;0.30;;;;;;;13.43;100.00;100396.34;109881;1273;23072;-73
2023/06/12 04:42:23;;;;;;;2.40;0.30;;;;;;;13.49;100.00;100412.23;109821;1272;137977;-70
2023/06/12 04:44:50;;;;;;;1.40;0.20;;;;;;;13.55;100.00;100403.66;109804;1270;138172;-73
2023/06/12 04:47:18;;;;;;;1.00;0.30;;;;;;;13.56;100.00;100401.36;110002;1270;22225;-69
2023/06/12 04:49:45;;;;;;;1.10;0.50;;;;;;;13.59;100.00;100403.79;109754;1271;137307;-70
2023/06/12 04:52:13;;;;;;;3.30;0.30;;;;;;;13.57;100.00;100389.98;109728;1273;138231;-73
2023/06/12 04:54:44;;;;;;;1.40;0.40;;;;;;;13.72;100.00;100410.34;109821;1271;22333;-73
2023/06/12 04:57:12;;;;;;;6.00;0.20;;;;;;;13.75;100.00;100408.19;109782;1270;139390;-72
2023/06/12 04:59:42;;;;;;;1.90;0.40;;;;;;;13.71;100.00;100416.14;109999;1270;22424;-72
2023/06/12 05:02:09;;;;;;;0.60;0.20;;;;;;;13.69;100.00;100423.27;109789;1263;137916;-72
2023/06/12 05:04:38;;;;;;;0.90;0.30;;;;;;;13.64;100.00;100417.21;109773;1270;138920;-73
2023/06/12 05:07:16;;;;;;;5.50;0.20;;;;;;;13.65;100.00;100411.83;109931;1270;22356;-72
2023/06/12 05:09:46;;;;;;;1.90;0.20;;;;;;;13.67;100.00;100413.34;109806;1270;139283;-70
2023/06/12 05:12:14;;;;;;;1.30;0.30;;;;;;;13.75;100.00;100413.25;109843;1263;138032;-70
2023/06/12 05:14:45;;;;;;;2.30;0.20;;;;;;;13.80;100.00;100416.53;109866;1270;23248;-75
2023/06/12 05:17:14;;;;;;;4.60;0.40;;;;;;;13.81;100.00;100416.39;109835;1270;137815;-73
2023/06/12 05:19:43;;;;;;;3.80;0.40;;;;;;;13.80;100.00;100423.27;109967;1260;22801;-72
2023/06/12 05:22:10;;;;;;;1.50;0.30;;;;;;;13.82;100.00;100420.92;109774;1270;137542;-72
2023/06/12 05:24:38;;;;;;;0.50;0.20;;;;;;;13.92;100.00;100419.34;109721;1270;139131;-72
2023/06/12 05:27:07;;;;;;;3.90;0.30;;;;;;;14.04;100.00;100416.35;109883;1270;22896;-71
2023/06/12 05:29:34;;;;;;;1.30;0.20;;;;;;;14.13;100.00;100421.40;109785;1270;138846;-74
2023/06/12 05:32:03;;;;;;;0.80;0.20;;;;;;;14.17;100.00;100420.56;109897;1270;22408;-71
2023/06/12 05:34:30;;;;;;;2.60;0.30;;;;;;;14.21;100.00;100421.39;109975;1270;23047;-75
2023/06/12 05:36:58;;;;;;;1.70;0.40;;;;;;;14.20;99.97;100419.95;109902;1270;138841;-72
2023/06/12 05:39:27;;;;;;;1.50;0.60;;;;;;;14.21;99.86;100422.66;109949;1270;22314;-72
2023/06/12 05:41:54;;;;;;;0.60;0.30;;;;;;;14.24;99.99;100420.09;109863;1270;138398;-71
2023/06/12 05:44:22;;;;;;;0.70;0.20;;;;;;;14.20;98.13;100413.80;109830;1270;138573;-73
2023/06/12 05:46:52;;;;;;;1.30;0.20;;;;;;;14.29;96.75;100423.51;109781;1273;22318;-73
2023/06/12 05:49:19;;;;;;;0.40;0.30;;;;;;;14.25;97.53;100425.98;109852;1272;138136;-74
2023/06/12 05:51:49;;;;;;;2.70;0.20;;;;;;;14.25;98.07;100417.98;109962;1270;22296;-74
2023/06/12 05:54:17;;;;;;;4.10;0.50;;;;;;;14.28;96.86;100426.43;109853;1271;137933;-73
2023/06/12 05:56:45;;;;;;;2.70;0.40;;;;;;;14.28;97.15;100422.20;109690;1272;138666;-76
2023/06/12 05:59:13;;;;;;;1.50;0.40;;;;;;;14.28;98.51;100413.86;109891;1271;23038;-71
2023/06/12 06:01:41;;;;;;;1.80;0.30;;;;;;;14.31;99.12;100409.65;109629;1272;139116;-73
2023/06/12 06:04:11;;;;;;;7.20;0.90;;;;;;;14.38;97.37;100421.34;109849;1271;138672;-74
2023/06/12 06:06:39;;;;;;;1.90;0.60;;;;;;;14.40;97.13;100428.23;109901;1270;22340;-74
2023/06/12 06:09:09;;;;;;;1.60;0.70;;;;;;;14.37;96.24;100426.08;109895;1272;138196;-74
2023/06/12 06:11:37;;;;;;;2.90;0.30;;;;;;;14.32;96.09;100422.89;109937;1264;22347;-72
2023/06/12 06:14:04;;;;;;;2.50;0.60;;;;;;;14.28;96.70;100416.34;109921;1257;139958;-72
2023/06/12 06:16:32;;;;;;;2.20;0.30;;;;;;;14.24;96.81;100419.23;109856;1271;138423;-73
2023/06/12 06:19:21;;;;;;;0.80;0.30;;;;;;;14.10;96.76;100415.10;109880;1270;22323;-73
2023/06/12 06:21:48;;;;;;;3.30;0.30;;;;;;;14.12;97.73;100421.94;109806;1257;138716;-73
2023/06/12 06:24:16;;;;;;;7.70;0.40;;;;;;;14.12;97.60;100421.86;109825;1261;139664;-73
2023/06/12 06:26:44;;;;;;;3.60;0.50;;;;;;;14.10;97.45;100427.64;109954;1271;23057;-73
2023/06/12 06:29:13;;;;;;;6.30;0.80;;;;;;;14.07;97.28;100427.44;109840;1260;138187;-72
2023/06/12 06:31:42;;;;;;;2.90;0.30;;;;;;;14.04;98.45;100419.07;109950;1270;22376;-75
2023/06/12 06:34:11;;;;;;;0.80;0.30;;;;;;;14.02;98.56;100424.60;109829;1270;138393;-74
2023/06/12 06:36:38;;;;;;;2.40;0.30;;;;;;;14.02;97.77;100426.98;109734;1271;139676;-71
2023/06/12 06:39:06;;;;;;;2.70;0.20;;;;;;;14.04;98.36;100421.91;109890;1270;22256;-72
2023/06/12 06:41:33;;;;;;;3.30;0.40;;;;;;;14.08;98.64;100425.20;109784;1270;138125;-73
2023/06/12 06:44:01;;;;;;;2.60;0.30;;;;;;;14.12;98.43;100418.81;110000;1257;22257;-72
2023/06/12 06:46:29;;;;;;;2.30;0.20;;;;;;;14.11;98.67;100416.21;109936;1272;22363;-74
2023/06/12 06:48:57;;;;;;;3.50;0.40;;;;;;;14.13;99.68;100412.08;109881;1272;139850;-73
2023/06/12 06:51:24;;;;;;;1.20;0.20;;;;;;;14.20;99.44;100416.60;109966;1260;22340;-73
2023/06/12 06:53:52;;;;;;;1.20;0.30;;;;;;;14.32;98.68;100424.16;109824;1270;138217;-73
2023/06/12 06:56:19;;;;;;;5.50;0.40;;;;;;;14.43;96.72;100423.50;109896;1257;140295;-75
2023/06/12 06:58:48;;;;;;;6.30;0.60;;;;;;;14.52;95.76;100419.92;109966;1271;22374;-76
2023/06/12 07:01:17;;;;;;;3.10;0.70;;;;;;;14.64;95.28;100422.13;109839;1271;138113;-75
2023/06/12 07:03:45;;;;;;;2.60;0.70;;;;;;;14.82;95.77;100406.98;109964;1270;22307;-73
2023/06/12 07:06:12;;;;;;;1.10;0.80;;;;;;;15.06;94.94;100410.80;109840;1270;137701;-75
2023/06/12 07:08:40;;;;;;;0.30;0.20;;;;;;;15.24;92.47;100414.52;109928;1267;138127;-74
2023/06/12 07:11:08;;;;;;;1.30;0.50;;;;;;;15.35;92.34;100415.33;109909;1261;22342;-74
2023/06/12 07:13:37;;;;;;;0.70;0.20;;;;;;;15.46;91.49;100413.67;109841;1271;139792;-72
2023/06/12 07:16:04;;;;;;;1.80;0.50;;;;;;;15.45;90.68;100410.13;109804;1272;138275;-75
2023/06/12 07:18:32;;;;;;;2.20;0.60;;;;;;;15.49;89.69;100421.42;109994;1271;22323;-74
2023/06/12 07:20:59;;;;;;;2.00;0.40;;;;;;;15.46;90.54;100414.50;109918;1270;139267;-76
2023/06/12 07:23:27;;;;;;;1.90;0.50;;;;;;;15.49;90.71;100419.90;109960;1271;22325;-75
2023/06/12 07:25:55;;;;;;;1.60;0.60;;;;;;;15.53;90.33;100412.42;109833;1270;138653;-74
2023/06/12 07:28:22;;;;;;;1.80;0.50;;;;;;;15.60;89.68;100427.74;109949;1270;137897;-73
2023/06/12 07:30:50;;;;;;;1.10;0.30;;;;;;;15.64;88.30;100431.63;109826;1271;22303;-74
2023/06/12 07:33:17;;;;;;;1.20;0.50;;;;;;;15.64;87.54;100429.86;109783;1272;137698;-71
2023/06/12 07:35:45;;;;;;;3.30;0.40;;;;;;;15.62;87.80;100430.54;109844;1272;22398;-77
2023/06/12 07:38:13;;;;;;;2.70;0.40;;;;;;;15.59;87.68;100429.48;109843;1271;139205;-75
2023/06/12 07:40:40;;;;;;;2.70;0.50;;;;;;;15.51;88.13;100418.67;109791;1258;138868;-73
2023/06/12 07:43:08;;;;;;;1.20;0.40;;;;;;;15.58;89.18;100421.27;109912;1273;22322;-73
2023/06/12 07:45:36;;;;;;;5.60;0.60;;;;;;;15.65;89.71;100419.19;109837;1272;138790;-75
2023/06/12 07:48:04;;;;;;;1.40;0.30;;;;;;;15.74;87.94;100425.37;109819;1272;139012;-73
2023/06/12 07:50:34;;;;;;;4.60;0.90;;;;;;;15.84;87.66;100419.67;109876;1272;22334;-74
2023/06/12 07:53:01;;;;;;;3.30;0.50;;;;;;;15.87;87.27;100412.83;109707;1272;137505;-75
2023/06/12 07:55:30;;;;;;;9.20;0.50;;;;;;;16.06;86.53;100413.61;109892;1273;22383;-75
2023/06/12 07:57:58;;;;;;;3.00;0.30;;;;;;;16.19;85.75;100404.92;109825;1260;140050;-75
2023/06/12 08:00:26;;;;;;;0.90;0.20;;;;;;;16.32;85.70;100412.88;109735;1271;138302;-72
2023/06/12 08:02:58;;;;;;;1.90;0.30;;;;;;;16.46;84.99;100414.17;109927;1271;24729;-73
2023/06/12 08:05:34;;;;;;;1.90;0.40;;;;;;;16.55;84.01;100408.64;109784;1270;137753;-72
2023/06/12 08:08:05;;;;;;;1.60;0.30;;;;;;;16.56;83.78;100417.33;109910;1270;138341;-74
2023/06/12 08:10:34;;;;;;;3.70;0.30;;;;;;;16.54;84.22;100418.05;109921;1271;22304;-73
2023/06/12 08:13:01;;;;;;;4.30;0.40;;;;;;;16.52;84.67;100410.98;109923;1258;138149;-76
2023/06/12 08:15:30;;;;;;;4.70;0.40;;;;;;;16.49;84.43;100423.21;109912;1271;22164;-74
2023/06/12 08:17:57;;;;;;;5.20;0.50;;;;;;;16.38;85.26;100416.10;109960;1271;138426;-75
2023/06/12 08:20:25;;;;;;;0.50;0.30;;;;;;;16.26;86.11;100413.77;109866;1272;138428;-74
2023/06/12 08:22:57;;;;;;;2.00;0.50;;;;;;;16.27;86.53;100413.90;109910;1272;22319;-75
2023/06/12 08:25:25;;;;;;;1.30;0.40;;;;;;;16.33;86.74;100410.75;109770;1272;139784;-76
2023/06/12 08:27:56;;;;;;;3.90;0.40;;;;;;;16.48;87.20;100402.52;109928;1257;22306;-75
2023/06/12 08:30:23;;;;;;;0.80;0.30;;;;;;;16.64;87.74;100399.80;109768;1273;137514;-77
2023/06/12 08:32:51;;;;;;;4.70;0.50;;;;;;;16.86;85.88;100405.78;109880;1271;138898;-73
2023/06/12 08:35:18;;;;;;;3.70;0.30;;;;;;;17.02;84.53;100412.40;109931;1271;22339;-75
2023/06/12 08:37:47;;;;;;;4.00;0.30;;;;;;;17.16;84.11;100408.68;109811;1272;139113;-76
2023/06/12 08:40:15;;;;;;;3.20;0.30;;;;;;;17.30;84.03;100404.23;109800;1272;138400;-72
2023/06/12 08:42:52;;;;;;;2.90;0.40;;;;;;;17.40;82.96;100406.70;110113;1271;22438;-75
2023/06/12 08:45:26;;;;;;;2.70;0.80;;;;;;;17.49;82.28;100409.62;109810;1271;137523;-76
2023/06/12 08:47:55;;;;;;;2.50;0.70;;;;;;;17.54;81.84;100407.95;109909;1271;22983;-75
2023/06/12 08:50:23;;;;;;;3.60;0.30;;;;;;;17.53;82.42;100414.50;109894;1271;139129;-74
2023/06/12 08:52:53;;;;;;;0.70;0.20;;;;;;;17.52;82.43;100411.64;109870;1271;138220;-76
2023/06/12 08:55:21;;;;;;;1.50;0.70;;;;;;;17.53;82.94;100413.54;109865;1273;22393;-76
2023/06/12 08:57:48;;;;;;;4.80;0.40;;;;;;;17.55;83.22;100407.98;109933;1270;137929;-76
2023/06/12 09:00:16;;;;;;;1.70;1.00;;;;;;;17.56;83.08;100414.04;109797;1271;138726;-76
2023/06/12 09:02:49;;;;;;;7.20;0.30;;;;;;;17.52;83.15;100407.73;109862;1273;22331;-74
2023/06/12 09:05:24;;;;;;;1.90;0.90;;;;;;;17.44;83.75;100399.20;109832;1271;137473;-74
2023/06/12 09:07:52;;;;;;;4.00;0.50;;;;;;;17.33;84.74;100399.89;109944;1273;22394;-73
2023/06/12 09:10:20;;;;;;;3.90;0.20;;;;;;;17.24;85.22;100407.27;109824;1272;138947;-70
2023/06/12 09:12:47;;;;;;;1.60;0.50;;;;;;;17.17;85.55;100406.88;109857;1265;138188;-70
2023/06/12 09:15:19;;;;;;;0.80;0.50;;;;;;;17.11;85.17;100410.77;110028;1257;23231;-74
2023/06/12 09:17:48;;;;;;;6.70;0.50;;;;;;;16.99;85.39;100422.23;109859;1270;138704;-73
2023/06/12 09:20:26;;;;;;;2.90;0.50;;;;;;;16.82;85.88;100412.27;109782;1273;139070;-72
2023/06/12 09:23:10;;;;;;;2.20;0.40;;;;;;;16.68;86.61;100399.25;109837;1272;23022;-72
2023/06/12 09:25:43;;;;;;;2.10;0.20;;;;;;;16.71;87.00;100411.17;109748;1272;139304;-73
2023/06/12 09:28:36;;;;;;;1.50;0.20;;;;;;;16.63;87.60;100417.41;109758;1272;139064;-72
2023/06/12 09:31:05;;;;;;;0.40;0.20;;;;;;;16.58;87.26;100417.80;109907;1272;22371;-72
2023/06/12 09:33:35;;;;;;;1.60;0.30;;;;;;;16.51;87.20;100417.17;109790;1272;137925;-73
2023/06/12 09:36:03;;;;;;;1.00;0.20;;;;;;;16.42;87.39;100429.25;109832;1272;138586;-69
2023/06/12 09:38:32;;;;;;;1.10;0.20;;;;;;;16.34;87.79;100425.37;109888;1271;23751;-73
2023/06/12 09:41:05;;;;;;;2.90;0.30;;;;;;;16.29;88.48;100430.05;109847;1271;138696;-74
2023/06/12 09:43:33;;;;;;;1.50;0.20;;;;;;;16.28;88.43;100435.66;109887;1272;22532;-72
2023/06/12 09:46:03;;;;;;;1.50;0.30;;;;;;;16.26;88.51;100440.17;109811;1271;139875;-72
2023/06/12 09:48:35;;;;;;;1.00;0.30;;;;;;;16.24;88.98;100436.52;109736;1271;140003;-72
2023/06/12 09:51:07;;;;;;;3.00;0.40;;;;;;;16.21;88.81;100438.79;109954;1271;22367;-74
2023/06/12 09:53:36;;;;;;;3.10;0.50;;;;;;;16.14;88.89;100436.20;109731;1270;137534;-73
2023/06/12 09:56:06;;;;;;;0.40;0.20;;;;;;;16.05;88.79;100436.09;109884;1271;137978;-71
2023/06/12 09:58:38;;;;;;;2.20;0.40;;;;;;;15.97;89.22;100436.63;109878;1271;22196;-74
2023/06/12 10:01:07;;;;;;;1.20;0.30;;;;;;;15.93;89.60;100438.70;109787;1271;138210;-73
2023/06/12 10:03:39;;;;;;;5.80;1.50;;;;;;;15.91;89.50;100437.77;109885;1268;22970;-72
2023/06/12 10:06:10;;;;;;;0.70;0.50;;;;;;;15.89;89.38;100443.20;109872;1270;138861;-71
2023/06/12 10:08:38;;;;;;;2.40;0.40;;;;;;;15.83;89.46;100439.81;109865;1271;138158;-74
2023/06/12 10:11:10;;;;;;;2.00;0.40;;;;;;;15.75;90.10;100439.34;110022;1270;22345;-74
2023/06/12 10:13:38;;;;;;;0.40;0.20;;;;;;;15.70;90.62;100429.44;109911;1270;139433;-76
2023/06/12 10:16:07;;;;;;;5.80;0.50;;;;;;;15.68;91.42;100430.28;109866;1271;139681;-75
2023/06/12 10:18:35;;;;;;;1.80;0.30;;;;;;;15.69;91.71;100434.23;109886;1272;23092;-73
2023/06/12 10:21:02;;;;;;;3.70;0.40;;;;;;;15.71;91.48;100431.58;109866;1271;139876;-75
2023/06/12 10:23:31;;;;;;;1.30;0.50;;;;;;;15.73;91.55;100430.80;109959;1261;22405;-74
2023/06/12 10:26:02;;;;;;;0.60;0.30;;;;;;;15.73;91.75;100430.80;109889;1273;139162;-71
2023/06/12 10:28:30;;;;;;;4.20;0.40;;;;;;;15.72;92.04;100432.15;109780;1271;139291;-75
2023/06/12 10:31:16;;;;;;;1.30;0.20;;;;;;;15.72;91.26;100437.46;109965;1272;22337;-70
2023/06/12 10:33:59;;;;;;;1.90;0.50;;;;;;;15.69;91.09;100437.80;109870;1270;138004;-74
2023/06/12 10:36:44;;;;;;;1.50;0.40;;;;;;;15.69;91.52;100432.42;109670;1271;139017;-73
2023/06/12 10:39:23;;;;;;;2.20;0.50;;;;;;;15.72;91.46;100436.20;110043;1271;22356;-73
2023/06/12 10:41:59;;;;;;;0.50;0.50;;;;;;;15.77;91.20;100434.54;109721;1271;137915;-72
2023/06/12 10:44:52;;;;;;;1.30;0.70;;;;;;;15.79;91.14;100437.38;109856;1265;138592;-73
2023/06/12 10:47:21;;;;;;;1.90;0.60;;;;;;;15.77;91.12;100434.95;109900;1273;22160;-74
2023/06/12 10:49:58;;;;;;;4.70;1.00;;;;;;;15.72;91.84;100426.75;109801;1271;139568;-74
2023/06/12 10:52:26;;;;;;;0.60;0.60;;;;;;;15.73;91.57;100426.23;109788;1272;138465;-75
2023/06/12 10:55:12;;;;;;;3.30;0.70;;;;;;;15.76;91.08;100433.18;109936;1265;22992;-74
2023/06/12 10:57:47;;;;;;;0.50;0.30;;;;;;;15.80;91.09;100427.52;109755;1272;138747;-75
2023/06/12 11:00:19;;;;;;;3.50;0.90;;;;;;;15.86;91.40;100428.80;109761;1272;139934;-73
2023/06/12 11:02:57;;;;;;;2.60;0.80;;;;;;;15.96;91.69;100428.98;109771;1273;22382;-75
2023/06/12 11:05:27;;;;;;;6.40;0.50;;;;;;;16.00;90.89;100426.10;109836;1271;137790;-75
2023/06/12 11:07:56;;;;;;;3.80;0.70;;;;;;;16.00;90.72;100425.81;109963;1272;22309;-73
2023/06/12 11:10:24;;;;;;;2.00;0.90;;;;;;;16.01;90.94;100425.76;109916;1271;139442;-74
2023/06/12 11:12:51;;;;;;;3.10;0.50;;;;;;;16.03;90.65;100423.84;109849;1263;138010;-73
2023/06/12 11:15:21;;;;;;;4.10;0.80;;;;;;;16.05;90.75;100423.64;110148;1272;22452;-73
2023/06/12 11:17:50;;;;;;;0.90;0.60;;;;;;;16.13;90.47;100427.42;109903;1270;138379;-75
2023/06/12 11:20:19;;;;;;;2.80;0.90;;;;;;;16.22;90.22;100421.56;109868;1268;138385;-74
2023/06/12 11:22:48;;;;;;;2.20;0.40;;;;;;;16.33;89.95;100421.23;110068;1270;22347;-73
2023/06/12 11:25:17;;;;;;;1.50;0.80;;;;;;;16.41;89.77;100415.02;109864;1271;138673;-75
2023/06/12 11:27:48;;;;;;;1.80;0.70;;;;;;;16.46;89.58;100414.17;110143;1270;22319;-74
2023/06/12 11:30:15;;;;;;;3.90;0.50;;;;;;;16.50;89.79;100417.81;109881;1271;139161;-75
2023/06/12 11:33:06;;;;;;;0.70;0.50;;;;;;;16.59;90.09;100420.19;109869;1270;137893;-75
2023/06/12 11:35:39;;;;;;;3.20;0.50;;;;;;;16.69;89.82;100429.17;110047;1271;22346;-73
2023/06/12 11:38:07;;;;;;;1.80;0.70;;;;;;;16.78;89.12;100430.54;109862;1271;137608;-73
2023/06/12 11:40:39;;;;;;;0.90;0.20;;;;;;;16.85;87.35;100444.65;109814;1272;138316;-73
2023/06/12 11:43:07;;;;;;;1.50;0.30;;;;;;;16.89;84.49;100442.39;109923;1271;22302;-73
2023/06/12 11:45:41;;;;;;;6.10;0.40;;;;;;;16.88;84.12;100432.55;109841;1272;138820;-74
2023/06/12 11:48:14;;;;;;;2.30;0.30;;;;;;;16.93;83.91;100436.47;109715;1273;138729;-74
2023/06/12 11:50:47;;;;;;;0.50;0.20;;;;;;;16.95;84.06;100436.60;109941;1271;22325;-74
2023/06/12 11:53:15;;;;;;;1.50;0.60;;;;;;;16.84;84.31;100423.83;109823;1271;137972;-73
2023/06/12 11:55:47;;;;;;;6.50;0.40;;;;;;;16.89;84.35;100439.54;109952;1260;22342;-74
2023/06/12 11:58:18;;;;;;;1.70;0.20;;;;;;;16.89;84.19;100437.42;109781;1273;137901;-72
2023/06/12 12:00:49;;;;;;;3.70;0.20;;;;;;;16.84;83.35;100440.55;109860;1271;141858;-73
2023/06/12 12:03:17;;;;;;;1.30;0.30;;;;;;;16.75;83.23;100441.81;109901;1271;22780;-73
2023/06/12 12:05:51;;;;;;;2.70;0.30;;;;;;;16.67;83.69;100443.52;109870;1272;138485;-74
2023/06/12 12:08:27;;;;;;;2.00;0.20;;;;;;;16.60;84.09;100436.81;109810;1264;139267;-75
2023/06/12 12:11:17;;;;;;;0.60;0.20;;;;;;;16.54;83.92;100441.40;109869;1272;22314;-72
2023/06/12 12:13:52;;;;;;;5.30;0.40;;;;;;;16.47;84.18;100442.16;109776;1271;140085;-72
2023/06/12 12:16:26;;;;;;;1.60;0.40;;;;;;;16.42;84.27;100450.55;109837;1273;137022;-74
2023/06/12 12:18:55;;;;;;;0.40;0.30;;;;;;;16.38;84.95;100438.30;109887;1272;23033;-73
2023/06/12 12:21:23;;;;;;;1.10;0.50;;;;;;;16.38;85.38;100441.17;109866;1271;140712;-72
2023/06/12 12:23:53;;;;;;;0.70;0.20;;;;;;;16.42;86.01;100442.52;109923;1270;23258;-72
2023/06/12 12:26:22;;;;;;;2.30;0.30;;;;;;;16.45;86.62;100442.45;109916;1261;138097;-72
2023/06/12 12:28:50;;;;;;;1.40;0.40;;;;;;;16.45;87.21;100448.29;109878;1271;138858;-73
2023/06/12 12:31:17;;;;;;;3.60;0.40;;;;;;;16.46;87.82;100461.54;110063;1271;23034;-71
2023/06/12 12:33:45;;;;;;;2.40;0.30;;;;;;;16.43;88.40;100460.27;109854;1258;138501;-72
2023/06/12 12:36:12;;;;;;;0.30;0.20;;;;;;;16.36;88.93;100464.90;109950;1271;138091;-73
2023/06/12 12:38:40;;;;;;;2.80;0.20;;;;;;;16.26;89.01;100469.23;110027;1271;22440;-73
2023/06/12 12:41:07;;;;;;;2.50;1.30;;;;;;;16.18;89.90;100469.64;109876;1271;137892;-75
2023/06/12 12:43:35;;;;;;;3.20;0.20;;;;;;;16.14;91.08;100463.80;109942;1270;22336;-72